createdAt,value
2022-08-25T00:01:46.207Z,11.40
2022-08-25T00:04:16.455Z,10.57
2022-08-25T00:06:47.398Z,10.07
2022-08-25T00:09:19.254Z,10.75
2022-08-25T00:11:49.532Z,9.48
2022-08-25T00:14:19.705Z,8.40
2022-08-25T00:16:48.635Z,12.73
2022-08-25T00:19:19.525Z,8.43
2022-08-25T00:21:48.268Z,8.00
2022-08-25T00:24:19.768Z,12.18
2022-08-25T00:26:50.731Z,12.63
2022-08-25T00:29:19.295Z,13.25
2022-08-25T00:31:48.011Z,9.95
2022-08-25T00:34:19.857Z,12.35
2022-08-25T00:36:50.896Z,15.45
2022-08-25T00:39:22.000Z,12.13
2022-08-25T00:41:51.516Z,12.60
2022-08-25T00:44:20.618Z,10.75
2022-08-25T00:46:51.151Z,11.10
2022-08-25T00:49:25.235Z,9.80
2022-08-25T00:51:59.763Z,8.80
2022-08-25T00:54:33.206Z,10.98
2022-08-25T00:57:01.863Z,7.65
2022-08-25T00:59:30.475Z,9.18
2022-08-25T01:01:59.613Z,10.75
2022-08-25T01:04:28.197Z,13.10
2022-08-25T01:06:56.855Z,13.20
2022-08-25T01:09:25.586Z,9.02
2022-08-25T01:11:56.010Z,11.48
2022-08-25T01:14:24.637Z,11.32
2022-08-25T01:16:55.227Z,15.82
2022-08-25T01:19:23.681Z,14.93
2022-08-25T01:21:54.122Z,11.55
2022-08-25T01:24:27.222Z,10.75
2022-08-25T01:26:55.621Z,13.07
2022-08-25T01:29:25.620Z,10.77
2022-08-25T01:31:57.960Z,12.10
2022-08-25T01:34:27.332Z,9.48
2022-08-25T01:36:57.847Z,11.32
2022-08-25T01:39:26.760Z,11.07
2022-08-25T01:42:14.362Z,10.88
2022-08-25T01:44:45.179Z,7.30
2022-08-25T01:47:14.066Z,11.70
2022-08-25T01:49:42.524Z,9.43
2022-08-25T01:52:17.526Z,9.27
2022-08-25T01:54:46.247Z,12.73
2022-08-25T01:57:14.693Z,7.75
2022-08-25T01:59:43.174Z,12.77
2022-08-25T02:02:11.690Z,10.07
2022-08-25T02:04:40.811Z,7.28
2022-08-25T02:07:14.665Z,8.52
2022-08-25T02:09:44.319Z,13.38
2022-08-25T02:12:12.995Z,13.02
2022-08-25T02:14:41.653Z,12.60
2022-08-25T02:17:10.862Z,9.95
2022-08-25T02:19:39.362Z,11.02
2022-08-25T02:22:07.810Z,10.90
2022-08-25T02:24:37.921Z,8.90
2022-08-25T02:27:06.618Z,9.27
2022-08-25T02:29:35.076Z,11.82
2022-08-25T02:32:03.841Z,10.57
2022-08-25T02:34:32.287Z,11.75
2022-08-25T02:37:00.884Z,12.38
2022-08-25T02:39:29.436Z,11.75
2022-08-25T02:42:00.073Z,11.50
2022-08-25T02:44:28.475Z,9.82
2022-08-25T02:46:56.912Z,11.43
2022-08-25T02:49:25.441Z,8.73
2022-08-25T02:51:54.741Z,10.75
2022-08-25T02:54:24.088Z,7.85
2022-08-25T02:56:52.546Z,8.88
2022-08-25T02:59:22.406Z,8.05
2022-08-25T03:01:50.860Z,11.00
2022-08-25T03:04:19.466Z,11.68
2022-08-25T03:06:47.940Z,8.85
2022-08-25T03:09:17.145Z,7.90
2022-08-25T03:11:47.461Z,11.85
2022-08-25T03:14:16.478Z,9.05
2022-08-25T03:16:46.700Z,10.05
2022-08-25T03:19:16.917Z,12.40
2022-08-25T03:21:46.208Z,11.80
2022-08-25T03:24:14.700Z,6.82
2022-08-25T03:26:54.432Z,9.00
2022-08-25T03:29:23.695Z,10.48
2022-08-25T03:31:54.933Z,12.20
2022-08-25T03:34:23.925Z,10.60
2022-08-25T03:36:53.667Z,9.25
2022-08-25T03:39:23.521Z,12.02
2022-08-25T03:41:52.142Z,9.32
2022-08-25T03:44:21.056Z,11.45
2022-08-25T03:46:51.206Z,9.70
2022-08-25T03:49:23.725Z,10.65
2022-08-25T03:51:53.988Z,12.70
2022-08-25T03:54:24.180Z,9.02
2022-08-25T03:56:52.921Z,10.75
2022-08-25T03:59:21.508Z,13.13
2022-08-25T04:01:54.454Z,8.85
2022-08-25T04:04:25.020Z,15.77
2022-08-25T04:06:54.101Z,6.60
2022-08-25T04:09:22.678Z,10.40
2022-08-25T04:11:53.370Z,11.43
2022-08-25T04:14:22.606Z,11.82
2022-08-25T04:16:51.142Z,10.07
2022-08-25T04:19:20.356Z,10.60
2022-08-25T04:21:50.282Z,8.68
2022-08-25T04:24:19.259Z,11.88
2022-08-25T04:26:49.810Z,15.02
2022-08-25T04:29:23.978Z,10.43
2022-08-25T04:31:52.729Z,12.73
2022-08-25T04:34:30.358Z,8.20
2022-08-25T04:37:02.942Z,11.57
2022-08-25T04:39:31.930Z,12.57
2022-08-25T04:42:01.046Z,8.68
2022-08-25T04:44:30.227Z,11.60
2022-08-25T04:46:58.754Z,8.68
2022-08-25T04:49:27.354Z,9.38
2022-08-25T04:51:57.498Z,10.20
2022-08-25T04:54:28.323Z,12.88
2022-08-25T04:56:58.057Z,16.10
2022-08-25T04:59:30.298Z,8.43
2022-08-25T05:02:02.654Z,10.45
2022-08-25T05:04:31.739Z,12.02
2022-08-25T05:07:00.615Z,11.40
2022-08-25T05:09:32.536Z,16.15
2022-08-25T05:12:02.371Z,12.40
2022-08-25T05:14:31.742Z,10.57
2022-08-25T05:17:00.490Z,9.95
2022-08-25T05:19:29.324Z,13.95
2022-08-25T05:21:58.324Z,13.00
2022-08-25T05:24:28.071Z,11.15
2022-08-25T05:26:58.225Z,9.10
2022-08-25T05:29:27.140Z,14.80
2022-08-25T05:31:55.916Z,17.48
2022-08-25T05:34:24.937Z,26.48
2022-08-25T05:36:53.365Z,26.60
2022-08-25T05:39:21.882Z,23.85
2022-08-25T05:41:50.316Z,30.67
2022-08-25T05:44:21.378Z,14.90
2022-08-25T05:46:51.407Z,16.85
2022-08-25T05:49:20.166Z,17.25
2022-08-25T05:51:48.749Z,14.98
2022-08-25T05:54:18.396Z,16.98
2022-08-25T05:56:46.838Z,21.00
2022-08-25T05:59:15.264Z,16.80
2022-08-25T06:02:02.558Z,20.33
2022-08-25T06:04:31.163Z,16.02
2022-08-25T06:06:59.624Z,18.50
2022-08-25T06:09:28.100Z,12.55
2022-08-25T06:11:56.601Z,19.83
2022-08-25T06:14:25.188Z,17.90
2022-08-25T06:16:55.600Z,20.48
2022-08-25T06:19:24.363Z,20.45
2022-08-25T06:21:56.324Z,18.50
2022-08-25T06:24:25.067Z,16.80
2022-08-25T06:26:53.676Z,21.85
2022-08-25T06:29:22.380Z,14.15
2022-08-25T06:31:51.039Z,19.60
2022-08-25T06:34:23.895Z,18.85
2022-08-25T06:36:53.278Z,17.45
2022-08-25T06:39:21.874Z,17.05
2022-08-25T06:41:53.907Z,18.50
2022-08-25T06:44:22.538Z,24.02
2022-08-25T06:46:51.184Z,14.98
2022-08-25T06:49:21.527Z,16.92
2022-08-25T06:51:50.714Z,21.08
2022-08-25T06:54:19.175Z,17.75
2022-08-25T06:56:49.619Z,15.43
2022-08-25T06:59:18.896Z,22.00
2022-08-25T07:01:50.110Z,14.60
2022-08-25T07:04:20.477Z,17.30
2022-08-25T07:06:48.973Z,15.30
2022-08-25T07:09:17.417Z,15.25
2022-08-25T07:11:47.009Z,14.70
2022-08-25T07:14:17.983Z,21.60
2022-08-25T07:16:49.630Z,16.90
2022-08-25T07:19:21.497Z,17.48
2022-08-25T07:21:52.692Z,14.77
2022-08-25T07:24:21.634Z,26.10
2022-08-25T07:26:50.218Z,21.80
2022-08-25T07:29:20.215Z,17.90
2022-08-25T07:32:01.305Z,27.73
2022-08-25T07:34:52.040Z,27.27
2022-08-25T07:37:47.752Z,28.63
2022-08-25T07:40:14.407Z,25.98
2022-08-25T07:42:43.285Z,18.45
2022-08-25T07:45:13.135Z,26.08
2022-08-25T07:47:42.319Z,21.02
2022-08-25T07:50:13.407Z,22.88
2022-08-25T07:52:43.270Z,20.10
2022-08-25T07:55:12.361Z,20.30
2022-08-25T07:57:48.935Z,28.27
2022-08-25T08:00:22.896Z,21.67
2022-08-25T08:02:53.238Z,18.95
2022-08-25T08:05:23.821Z,23.33
2022-08-25T08:07:52.658Z,24.52
2022-08-25T08:13:10.578Z,24.92
2022-08-25T08:15:39.256Z,23.63
2022-08-25T08:18:07.817Z,25.58
2022-08-25T08:20:43.138Z,25.05
2022-08-25T08:23:12.074Z,30.55
2022-08-25T08:25:40.717Z,19.73
2022-08-25T08:28:09.998Z,25.25
2022-08-25T08:30:39.647Z,25.92
2022-08-25T08:33:23.168Z,21.33
2022-08-25T08:36:00.251Z,27.52
2022-08-25T08:38:34.742Z,21.95
2022-08-25T08:41:36.739Z,24.23
2022-08-25T08:44:23.147Z,23.52
2022-08-25T08:47:00.764Z,29.25
2022-08-25T08:49:32.839Z,25.85
2022-08-25T08:52:03.445Z,21.85
2022-08-25T08:54:35.256Z,23.00
2022-08-25T08:57:11.268Z,27.55
2022-08-25T08:59:48.704Z,25.88
2022-08-25T09:02:38.775Z,31.15
2022-08-25T09:05:10.724Z,19.23
2022-08-25T09:07:42.900Z,23.20
2022-08-25T09:10:16.621Z,29.20
2022-08-25T09:12:48.197Z,28.30
2022-08-25T09:15:21.525Z,17.25
2022-08-25T09:18:08.696Z,29.50
2022-08-25T09:20:59.892Z,27.95
2022-08-25T09:23:42.506Z,33.67
2022-08-25T09:26:24.199Z,29.88
2022-08-25T09:28:55.344Z,34.83
2022-08-25T09:31:29.484Z,40.33
2022-08-25T09:33:59.479Z,36.13
2022-08-25T09:36:28.728Z,29.48
2022-08-25T09:38:59.079Z,31.35
2022-08-25T09:41:43.156Z,27.00
2022-08-25T09:44:20.968Z,25.77
2022-08-25T09:47:04.648Z,30.85
2022-08-25T09:49:37.667Z,35.47
2022-08-25T09:52:35.576Z,27.02
2022-08-25T09:55:32.453Z,28.33
2022-08-25T09:58:01.352Z,35.47
2022-08-25T10:00:38.294Z,31.48
2022-08-25T10:03:13.299Z,37.55
2022-08-25T10:06:00.990Z,31.30
2022-08-25T10:08:36.293Z,34.58
2022-08-25T10:11:09.688Z,34.83
2022-08-25T10:13:42.244Z,33.60
2022-08-25T10:16:24.354Z,33.05
2022-08-25T10:19:07.220Z,36.17
2022-08-25T10:21:36.264Z,35.22
2022-08-25T10:24:06.208Z,32.35
2022-08-25T10:26:47.776Z,31.20
2022-08-25T10:29:32.804Z,27.58
2022-08-25T10:32:11.504Z,33.03
2022-08-25T10:34:51.368Z,28.10
2022-08-25T10:37:32.696Z,33.70
2022-08-25T10:40:12.865Z,32.65
2022-08-25T10:42:56.916Z,35.42
2022-08-25T10:45:46.156Z,29.02
2022-08-25T10:48:52.066Z,29.50
2022-08-25T10:51:34.505Z,31.50
2022-08-25T10:54:09.265Z,32.00
2022-08-25T10:56:41.591Z,28.40
2022-08-25T10:59:51.064Z,25.75
2022-08-25T11:02:48.938Z,31.00
2022-08-25T11:05:25.133Z,33.60
2022-08-25T11:07:55.888Z,27.17
2022-08-25T11:10:27.195Z,27.70
2022-08-25T11:12:57.273Z,24.90
2022-08-25T11:15:29.633Z,25.98
2022-08-25T11:18:02.277Z,24.38
2022-08-25T11:20:34.620Z,28.70
2022-08-25T11:23:11.504Z,24.95
2022-08-25T11:25:43.421Z,21.45
2022-08-25T11:28:14.751Z,23.95
2022-08-25T11:30:44.974Z,25.20
2022-08-25T11:33:15.985Z,18.00
2022-08-25T11:35:51.273Z,22.25
2022-08-25T11:38:30.179Z,28.65
2022-08-25T11:41:11.222Z,19.85
2022-08-25T11:44:01.735Z,25.73
2022-08-25T11:46:50.420Z,25.23
2022-08-25T11:49:48.754Z,23.38
2022-08-25T11:52:49.299Z,21.92
2022-08-25T11:55:22.996Z,22.38
2022-08-25T11:57:53.883Z,17.85
2022-08-25T12:00:41.091Z,16.48
2022-08-25T12:03:52.617Z,21.40
2022-08-25T12:06:31.520Z,20.52
2022-08-25T12:09:22.942Z,16.15
2022-08-25T12:11:55.121Z,26.55
2022-08-25T12:14:46.260Z,18.33
2022-08-25T12:17:27.048Z,19.98
2022-08-25T12:19:59.465Z,22.63
2022-08-25T12:22:58.415Z,21.52
2022-08-25T12:25:51.386Z,19.27
2022-08-25T12:28:39.150Z,18.85
2022-08-25T12:31:17.540Z,17.85
2022-08-25T12:33:59.473Z,18.65
2022-08-25T12:36:31.563Z,15.73
2022-08-25T12:39:19.860Z,21.55
2022-08-25T12:41:57.473Z,20.25
2022-08-25T12:44:42.363Z,21.70
2022-08-25T12:47:28.413Z,17.05
2022-08-25T12:50:37.835Z,15.90
2022-08-25T12:53:13.700Z,20.60
2022-08-25T12:55:47.808Z,22.55
2022-08-25T12:58:17.204Z,20.40
2022-08-25T13:01:06.945Z,22.00
2022-08-25T13:03:55.347Z,15.82
2022-08-25T13:06:42.519Z,14.88
2022-08-25T13:10:00.208Z,17.88
2022-08-25T13:12:32.481Z,19.85
2022-08-25T13:15:01.239Z,20.83
2022-08-25T13:17:33.802Z,15.98
2022-08-25T13:20:20.022Z,15.75
2022-08-25T13:22:53.983Z,19.75
2022-08-25T13:25:31.920Z,24.95
2022-08-25T13:28:03.217Z,18.00
2022-08-25T13:30:34.364Z,15.52
2022-08-25T13:33:20.066Z,19.50
2022-08-25T13:35:50.135Z,15.38
2022-08-25T13:38:20.163Z,18.50
2022-08-25T13:40:50.396Z,14.80
2022-08-25T13:43:27.432Z,15.40
2022-08-25T13:46:01.130Z,15.80
2022-08-25T13:48:37.596Z,14.95
2022-08-25T13:51:18.400Z,14.40
2022-08-25T13:53:55.734Z,14.40
2022-08-25T13:56:40.051Z,15.55
2022-08-25T13:59:22.126Z,16.42
2022-08-25T14:01:50.789Z,22.38
2022-08-25T14:04:27.667Z,16.50
2022-08-25T14:07:34.379Z,17.17
2022-08-25T14:10:05.321Z,19.55
2022-08-25T14:12:39.571Z,16.50
2022-08-25T14:15:16.576Z,18.00
2022-08-25T14:20:25.709Z,12.65
2022-08-25T14:22:58.096Z,17.02
2022-08-25T14:25:27.421Z,13.82
2022-08-25T14:28:16.479Z,18.45
2022-08-25T14:30:47.332Z,19.00
2022-08-25T14:33:16.952Z,15.82
2022-08-25T14:35:48.546Z,19.13
2022-08-25T14:38:17.575Z,12.95
2022-08-25T14:40:46.152Z,14.82
2022-08-25T14:43:18.088Z,18.45
2022-08-25T14:45:52.465Z,22.23
2022-08-25T14:48:26.064Z,15.65
2022-08-25T14:50:54.872Z,11.98
2022-08-25T14:53:23.459Z,16.48
2022-08-25T14:55:58.794Z,13.55
2022-08-25T14:58:33.927Z,17.25
2022-08-25T15:01:03.129Z,14.07
2022-08-25T15:03:34.275Z,21.88
2022-08-25T15:06:04.297Z,17.02
2022-08-25T15:08:50.558Z,16.80
2022-08-25T15:11:19.186Z,14.98
2022-08-25T15:13:49.779Z,12.50
2022-08-25T15:16:34.061Z,9.02
2022-08-25T15:19:06.660Z,13.68
2022-08-25T15:21:36.671Z,15.35
2022-08-25T15:24:05.922Z,21.20
2022-08-25T15:26:38.939Z,19.08
2022-08-25T15:29:08.981Z,14.82
2022-08-25T15:31:40.086Z,19.38
2022-08-25T15:34:11.642Z,18.77
2022-08-25T15:36:40.723Z,15.38
2022-08-25T15:39:10.563Z,20.15
2022-08-25T15:41:39.819Z,11.77
2022-08-25T15:44:12.675Z,18.30
2022-08-25T15:46:47.042Z,13.85
2022-08-25T15:49:20.884Z,15.38
2022-08-25T15:51:54.223Z,12.95
2022-08-25T15:54:23.913Z,16.52
2022-08-25T15:56:55.535Z,15.35
2022-08-25T15:59:26.771Z,13.70
2022-08-25T16:01:56.494Z,16.60
2022-08-25T16:04:26.425Z,16.08
2022-08-25T16:06:55.637Z,22.58
2022-08-25T16:09:24.260Z,18.77
2022-08-25T16:11:56.288Z,15.90
2022-08-25T16:14:28.049Z,18.00
2022-08-25T16:16:58.218Z,16.33
2022-08-25T16:19:27.746Z,19.40
2022-08-25T16:21:56.290Z,15.32
2022-08-25T16:24:25.005Z,17.33
2022-08-25T16:26:55.814Z,19.30
2022-08-25T16:29:24.591Z,23.73
2022-08-25T16:31:55.129Z,15.43
2022-08-25T16:34:28.735Z,24.98
2022-08-25T16:36:59.605Z,24.15
2022-08-25T16:39:28.497Z,21.80
2022-08-25T16:41:57.132Z,26.20
2022-08-25T16:44:25.863Z,18.80
2022-08-25T16:46:56.740Z,17.20
2022-08-25T16:49:25.512Z,18.88
2022-08-25T16:51:57.221Z,21.52
2022-08-25T16:54:43.959Z,16.30
2022-08-25T16:57:12.822Z,19.10
2022-08-25T16:59:43.922Z,17.15
2022-08-25T17:02:13.939Z,17.05
2022-08-25T17:04:42.391Z,19.42
2022-08-25T17:07:11.106Z,23.92
2022-08-25T17:09:39.654Z,19.38
2022-08-25T17:12:09.335Z,21.05
2022-08-25T17:14:37.789Z,18.35
2022-08-25T17:17:07.186Z,28.90
2022-08-25T17:19:37.203Z,20.33
2022-08-25T17:22:07.460Z,18.67
2022-08-25T17:24:36.076Z,24.80
2022-08-25T17:27:08.977Z,20.27
2022-08-25T17:29:37.884Z,19.52
2022-08-25T17:32:07.064Z,23.08
2022-08-25T17:34:37.010Z,23.83
2022-08-25T17:37:05.766Z,18.52
2022-08-25T17:39:34.366Z,20.45
2022-08-25T17:42:03.146Z,20.08
2022-08-25T17:44:31.674Z,20.52
2022-08-25T17:47:00.515Z,26.45
2022-08-25T17:49:29.266Z,27.02
2022-08-25T17:51:59.959Z,23.92
2022-08-25T17:54:28.914Z,18.63
2022-08-25T17:56:58.219Z,26.95
2022-08-25T17:59:27.786Z,20.50
2022-08-25T18:02:02.373Z,18.58
2022-08-25T18:04:30.924Z,19.88
2022-08-25T18:07:00.796Z,24.85
2022-08-25T18:09:29.423Z,19.75
2022-08-25T18:11:57.998Z,26.95
2022-08-25T18:14:26.531Z,22.05
2022-08-25T18:16:55.263Z,18.25
2022-08-25T18:19:23.780Z,20.88
2022-08-25T18:21:52.457Z,20.92
2022-08-25T18:24:23.527Z,20.52
2022-08-25T18:26:52.604Z,27.92
2022-08-25T18:29:21.177Z,21.63
2022-08-25T18:31:51.885Z,21.02
2022-08-25T18:34:22.207Z,17.95
2022-08-25T18:36:51.333Z,20.38
2022-08-25T18:39:39.873Z,15.75
2022-08-25T18:42:08.818Z,24.25
2022-08-25T18:44:37.281Z,21.25
2022-08-25T18:47:07.808Z,19.25
2022-08-25T18:49:37.198Z,16.70
2022-08-25T18:52:07.491Z,20.40
2022-08-25T18:54:37.436Z,21.48
2022-08-25T18:57:08.322Z,22.15
2022-08-25T18:59:38.074Z,23.50
2022-08-25T19:02:07.560Z,23.52
2022-08-25T19:04:36.177Z,15.43
2022-08-25T19:07:04.971Z,18.23
2022-08-25T19:09:37.708Z,17.95
2022-08-25T19:12:06.806Z,17.05
2022-08-25T19:14:40.502Z,16.33
2022-08-25T19:17:09.816Z,15.63
2022-08-25T19:19:38.845Z,17.15
2022-08-25T19:22:16.596Z,18.15
2022-08-25T19:24:56.791Z,29.25
2022-08-25T19:27:25.303Z,27.05
2022-08-25T19:29:53.813Z,21.25
2022-08-25T19:32:22.910Z,18.55
2022-08-25T19:34:54.800Z,22.33
2022-08-25T19:37:27.001Z,22.40
2022-08-25T19:39:57.844Z,19.92
2022-08-25T19:42:35.039Z,16.77
2022-08-25T19:45:07.023Z,19.92
2022-08-25T19:47:35.474Z,22.60
2022-08-25T19:50:04.045Z,21.88
2022-08-25T19:52:32.678Z,19.50
2022-08-25T19:55:03.165Z,16.92
2022-08-25T19:57:43.086Z,13.77
2022-08-25T20:00:15.422Z,15.20
2022-08-25T20:02:44.034Z,15.40
2022-08-25T20:05:13.340Z,21.10
2022-08-25T20:07:42.082Z,15.90
2022-08-25T20:10:14.211Z,16.67
2022-08-25T20:12:44.757Z,21.02
2022-08-25T20:15:14.634Z,17.15
2022-08-25T20:17:46.132Z,18.85
2022-08-25T20:20:16.746Z,14.93
2022-08-25T20:22:45.863Z,16.33
2022-08-25T20:25:18.822Z,22.85
2022-08-25T20:27:49.649Z,16.63
2022-08-25T20:30:21.700Z,18.52
2022-08-25T20:32:50.908Z,19.88
2022-08-25T20:35:19.971Z,14.75
2022-08-25T20:37:55.217Z,16.75
2022-08-25T20:40:27.190Z,19.17
2022-08-25T20:42:55.786Z,24.40
2022-08-25T20:45:24.581Z,21.13
2022-08-25T20:47:53.154Z,21.67
2022-08-25T20:50:22.935Z,22.77
2022-08-25T20:52:52.456Z,17.88
2022-08-25T20:55:21.846Z,22.15
2022-08-25T20:57:51.805Z,19.92
2022-08-25T21:00:24.807Z,19.67
2022-08-25T21:02:54.195Z,19.55
2022-08-25T21:05:22.873Z,22.52
2022-08-25T21:07:51.348Z,19.50
2022-08-25T21:10:20.093Z,22.65
2022-08-25T21:12:49.458Z,23.20
2022-08-25T21:15:23.815Z,21.63
2022-08-25T21:17:54.413Z,17.77
2022-08-25T21:20:24.120Z,20.95
2022-08-25T21:22:53.322Z,20.45
2022-08-25T21:25:22.084Z,23.33
2022-08-25T21:27:50.597Z,21.27
2022-08-25T21:30:19.231Z,26.17
2022-08-25T21:32:53.442Z,20.95
2022-08-25T21:35:23.449Z,20.05
2022-08-25T21:37:53.060Z,24.88
2022-08-25T21:40:22.741Z,25.98
2022-08-25T21:42:51.946Z,26.23
2022-08-25T21:45:21.760Z,24.15
2022-08-25T21:47:52.567Z,26.35
2022-08-25T21:50:21.495Z,23.35
2022-08-25T21:52:54.658Z,20.90
2022-08-25T21:55:23.530Z,26.13
2022-08-25T21:57:52.693Z,24.30
2022-08-25T22:00:22.445Z,25.52
2022-08-25T22:02:53.083Z,22.85
2022-08-25T22:05:21.688Z,21.58
2022-08-25T22:07:50.336Z,24.55
2022-08-25T22:10:20.972Z,27.13
2022-08-25T22:12:51.160Z,18.33
2022-08-25T22:15:19.668Z,22.63
2022-08-25T22:17:48.401Z,19.02
2022-08-25T22:20:18.561Z,21.02
2022-08-25T22:22:47.080Z,21.80
2022-08-25T22:25:16.003Z,19.02
2022-08-25T22:27:44.758Z,22.40
2022-08-25T22:30:15.696Z,18.45
2022-08-25T22:32:45.608Z,20.15
2022-08-25T22:35:14.157Z,18.52
2022-08-25T22:37:44.181Z,19.83
2022-08-25T22:40:14.028Z,25.08
2022-08-25T22:42:47.467Z,23.17
2022-08-25T22:45:16.514Z,18.63
2022-08-25T22:47:45.252Z,23.27
2022-08-25T22:50:13.908Z,22.33
2022-08-25T22:52:47.208Z,25.73
2022-08-25T22:55:16.385Z,19.05
2022-08-25T22:57:44.956Z,15.35
2022-08-25T23:00:15.232Z,20.67
2022-08-25T23:02:44.716Z,20.20
2022-08-25T23:05:14.435Z,17.63
2022-08-25T23:07:43.076Z,20.52
2022-08-25T23:10:13.498Z,20.90
2022-08-25T23:12:43.923Z,20.92
2022-08-25T23:15:14.187Z,17.35
2022-08-25T23:17:42.780Z,18.15
2022-08-25T23:20:25.792Z,17.27
2022-08-25T23:22:54.464Z,15.82
2022-08-25T23:25:24.402Z,20.10
2022-08-25T23:27:53.134Z,15.65
2022-08-25T23:30:21.798Z,17.77
2022-08-25T23:32:50.349Z,16.80
2022-08-25T23:35:19.356Z,16.75
2022-08-25T23:37:48.595Z,21.65
2022-08-25T23:40:19.629Z,17.30
2022-08-25T23:42:49.912Z,18.50
2022-08-25T23:45:19.027Z,18.13
2022-08-25T23:47:47.508Z,15.43
2022-08-25T23:50:18.738Z,20.67
2022-08-25T23:52:47.831Z,17.52
2022-08-25T23:55:16.368Z,21.63
2022-08-25T23:57:45.132Z,18.25
